Time;durP1;ratioP1;P1;durP2;ratioP2;P2;SDS_P1;SDS_P2;PMS_P1;PMS_P2;Temp;Humidity;BMP_temperature;BMP_pressure;BME280_temperature;BME280_humidity;BME280_pressure;Samples;Min_cycle;Max_cycle;Signal;HPM_P1;HPM_P2
2021/10/17 00:01:25;;;;;;;10.23;8.63;;;;;;;16.02;66.71;100663.72;4996101;28;20136;-96
2021/10/17 00:03:51;;;;;;;17.17;11.65;;;;;;;15.93;66.98;100654.75;4996117;28;20101;-96
2021/10/17 00:06:17;;;;;;;13.43;9.95;;;;;;;15.95;66.90;100646.69;4996239;28;20041;-96
2021/10/17 00:08:43;;;;;;;12.50;9.85;;;;;;;15.92;66.81;100639.84;4996827;28;20026;-96
2021/10/17 00:11:08;;;;;;;16.20;10.32;;;;;;;15.94;66.88;100647.69;4995538;28;20543;-96
2021/10/17 00:13:34;;;;;;;13.60;8.65;;;;;;;15.95;66.64;100646.69;4996613;28;20072;-96
2021/10/17 00:15:59;;;;;;;12.70;9.20;;;;;;;15.96;66.74;100641.25;4994750;28;20477;-96
2021/10/17 00:18:25;;;;;;;14.70;10.00;;;;;;;15.98;66.66;100641.13;4994287;28;20452;-96
2021/10/17 00:20:50;;;;;;;15.73;9.77;;;;;;;16.00;67.05;100641.84;4995963;28;20026;-96
2021/10/17 00:23:16;;;;;;;15.65;11.57;;;;;;;16.00;67.11;100636.53;4995289;28;20030;-96
2021/10/17 00:25:41;;;;;;;12.98;10.40;;;;;;;16.01;67.14;100632.91;4995592;28;20476;-96
2021/10/17 00:28:06;;;;;;;14.20;10.25;;;;;;;16.01;67.15;100633.75;4996264;28;20045;-96
2021/10/17 00:30:32;;;;;;;14.57;10.90;;;;;;;15.96;67.07;100620.06;4995454;28;20025;-96
2021/10/17 00:32:57;;;;;;;16.90;11.30;;;;;;;16.03;67.44;100623.03;4996465;28;20033;-96
2021/10/17 00:35:23;;;;;;;18.63;12.02;;;;;;;16.03;67.72;100625.66;4995579;28;20025;-96
2021/10/17 00:37:49;;;;;;;17.52;11.98;;;;;;;16.06;68.04;100614.81;4995310;28;20041;-96
2021/10/17 00:40:17;;;;;;;15.40;12.25;;;;;;;16.11;67.37;100620.53;4995112;28;20033;-96
2021/10/17 00:42:44;;;;;;;18.48;11.85;;;;;;;16.09;67.15;100614.53;4995300;28;20033;-96
2021/10/17 00:45:12;;;;;;;16.15;11.55;;;;;;;16.13;67.54;100621.22;4996110;28;20030;-96
2021/10/17 00:47:38;;;;;;;21.48;11.45;;;;;;;15.97;67.48;100613.78;4995982;28;20372;-96
2021/10/17 00:50:06;;;;;;;15.93;11.55;;;;;;;15.96;67.74;100611.31;4993501;28;20021;-96
2021/10/17 00:52:31;;;;;;;20.02;12.18;;;;;;;15.88;68.25;100605.81;4996020;28;20029;-96
2021/10/17 00:54:57;;;;;;;19.10;12.75;;;;;;;15.95;68.73;100613.09;4995617;28;20040;-96
2021/10/17 00:57:23;;;;;;;16.58;12.85;;;;;;;15.93;68.70;100616.84;4996333;28;20076;-96
2021/10/17 00:59:49;;;;;;;14.98;12.82;;;;;;;15.63;69.68;100613.22;4994337;28;20061;-96
2021/10/17 01:02:15;;;;;;;21.65;14.93;;;;;;;15.54;70.32;100620.16;4995090;28;20022;-96
2021/10/17 01:04:41;;;;;;;23.92;14.27;;;;;;;15.63;70.03;100619.34;4995176;28;20022;-96
2021/10/17 01:07:08;;;;;;;17.27;12.82;;;;;;;15.91;69.36;100619.63;4995048;28;20124;-96
2021/10/17 01:09:35;;;;;;;18.15;12.73;;;;;;;15.76;69.77;100616.53;4996054;28;20080;-96
2021/10/17 01:12:00;;;;;;;19.42;12.90;;;;;;;15.64;70.20;100615.72;4994738;28;20023;-96
2021/10/17 01:14:26;;;;;;;16.90;13.07;;;;;;;15.64;70.18;100617.56;4995720;28;20040;-96
2021/10/17 01:16:52;;;;;;;17.85;14.52;;;;;;;15.66;70.60;100619.09;4993771;28;20022;-96
2021/10/17 01:19:19;;;;;;;19.05;13.55;;;;;;;15.66;70.37;100623.56;4993523;28;20033;-96
2021/10/17 01:21:46;;;;;;;23.63;15.50;;;;;;;15.62;71.04;100619.47;4995903;28;20468;-96
2021/10/17 01:24:14;;;;;;;19.90;13.95;;;;;;;15.53;71.16;100622.91;4994815;28;20120;-96
2021/10/17 01:26:40;;;;;;;18.23;14.00;;;;;;;15.57;70.96;100621.69;4995129;28;20036;-96
2021/10/17 01:29:06;;;;;;;16.60;12.93;;;;;;;15.62;70.53;100611.53;4995100;28;20029;-96
2021/10/17 01:31:42;;;;;;;16.95;13.07;;;;;;;15.72;70.04;100600.97;4994942;28;20030;-96
2021/10/17 01:34:08;;;;;;;15.13;12.63;;;;;;;15.67;69.26;100606.69;4995969;28;20029;-96
2021/10/17 01:36:36;;;;;;;21.00;13.30;;;;;;;15.63;69.33;100605.28;4994356;28;20447;-96
2021/10/17 01:39:03;;;;;;;15.05;12.88;;;;;;;15.57;69.46;100598.69;4995546;28;20026;-96
2021/10/17 01:41:28;;;;;;;16.60;13.13;;;;;;;15.62;69.13;100600.94;4993608;28;20037;-96
2021/10/17 01:44:02;;;;;;;17.58;13.10;;;;;;;15.70;68.87;100603.78;4994463;28;20156;-96
2021/10/17 01:46:28;;;;;;;17.38;13.75;;;;;;;15.80;68.30;100607.34;4994900;28;20033;-96
2021/10/17 01:48:53;;;;;;;16.33;12.90;;;;;;;15.73;68.79;100608.00;4994802;28;20026;-96
2021/10/17 01:51:19;;;;;;;18.30;12.98;;;;;;;15.68;69.13;100611.03;4994557;28;20107;-96
2021/10/17 01:53:45;;;;;;;16.67;12.88;;;;;;;15.68;69.25;100603.06;4992572;28;20041;-96
2021/10/17 01:56:10;;;;;;;14.88;12.65;;;;;;;15.75;69.09;100608.69;4995527;28;20041;-96
2021/10/17 01:58:35;;;;;;;16.77;12.90;;;;;;;15.77;69.11;100609.41;4993609;28;20034;-96
2021/10/17 02:01:01;;;;;;;18.88;14.50;;;;;;;15.65;68.85;100590.94;4995738;28;20026;-96
2021/10/17 02:03:26;;;;;;;17.10;12.88;;;;;;;15.74;69.27;100589.34;4995499;28;20030;-96
2021/10/17 02:05:52;;;;;;;22.58;13.80;;;;;;;15.75;69.38;100595.47;4995205;28;20353;-96
2021/10/17 02:08:17;;;;;;;21.15;13.40;;;;;;;15.78;69.47;100600.50;4994955;28;20108;-96
2021/10/17 02:10:42;;;;;;;15.68;12.95;;;;;;;15.77;69.81;100594.34;4996029;28;20022;-96
2021/10/17 02:13:08;;;;;;;18.60;13.05;;;;;;;15.81;69.51;100600.22;4995474;28;20384;-96
2021/10/17 02:15:33;;;;;;;20.88;15.00;;;;;;;15.79;69.77;100597.69;4997204;28;20129;-96
2021/10/17 02:17:59;;;;;;;15.27;11.93;;;;;;;15.84;69.55;100590.22;4997994;28;20034;-96
2021/10/17 02:20:24;;;;;;;21.33;14.70;;;;;;;15.89;70.07;100596.91;5000030;28;20033;-96
2021/10/17 02:22:49;;;;;;;18.10;12.45;;;;;;;15.92;70.05;100586.91;4999954;28;20472;-96
2021/10/17 02:25:15;;;;;;;16.45;13.75;;;;;;;15.97;70.05;100589.97;5000686;28;20028;-96
2021/10/17 02:27:40;;;;;;;17.17;13.38;;;;;;;16.09;69.96;100585.38;5000456;28;20038;-96
2021/10/17 02:30:07;;;;;;;19.23;15.50;;;;;;;16.25;69.60;100576.91;4999235;28;20038;-96
2021/10/17 02:32:34;;;;;;;20.25;13.60;;;;;;;16.31;69.30;100579.06;4993745;28;20500;-96
2021/10/17 02:35:00;;;;;;;21.73;14.77;;;;;;;16.19;69.86;100577.47;4999924;28;20029;-96
2021/10/17 02:37:28;;;;;;;21.85;16.70;;;;;;;16.26;69.88;100576.78;4999331;28;20026;-96
2021/10/17 02:39:53;;;;;;;23.27;16.05;;;;;;;16.43;69.53;100574.47;5000786;28;20025;-96
2021/10/17 02:42:18;;;;;;;17.85;14.18;;;;;;;16.49;69.16;100573.91;4999722;28;20391;-96
2021/10/17 02:44:44;;;;;;;25.48;14.48;;;;;;;16.23;70.46;100569.13;5001327;28;20084;-96
2021/10/17 02:47:09;;;;;;;21.63;13.98;;;;;;;16.23;70.82;100574.44;4999473;28;20108;-96
2021/10/17 02:49:34;;;;;;;23.42;15.63;;;;;;;16.31;71.02;100564.94;4997349;28;20112;-96
2021/10/17 02:52:00;;;;;;;18.75;14.10;;;;;;;16.49;70.75;100565.97;4999199;28;20109;-96
2021/10/17 02:54:25;;;;;;;17.33;12.88;;;;;;;16.54;70.53;100561.06;4999840;28;20030;-96
2021/10/17 02:56:51;;;;;;;16.65;13.65;;;;;;;16.57;70.32;100552.00;5000448;28;20388;-96
2021/10/17 02:59:16;;;;;;;20.25;14.50;;;;;;;16.65;70.42;100557.44;5001194;28;20040;-96
2021/10/17 03:01:42;;;;;;;17.23;12.38;;;;;;;16.61;70.66;100562.19;4998584;28;20022;-96
2021/10/17 03:04:07;;;;;;;16.65;12.80;;;;;;;16.53;71.13;100554.09;4998437;28;20057;-96
2021/10/17 03:06:32;;;;;;;22.23;15.52;;;;;;;16.54;71.30;100553.09;4999142;28;20026;-96
2021/10/17 03:08:58;;;;;;;20.52;13.88;;;;;;;16.54;71.51;100550.44;5000209;28;20030;-96
2021/10/17 03:11:23;;;;;;;17.58;14.23;;;;;;;16.51;71.73;100550.75;5000499;28;20480;-96
2021/10/17 03:13:49;;;;;;;20.88;14.05;;;;;;;16.54;71.46;100546.97;5002294;28;20026;-96
2021/10/17 03:16:15;;;;;;;17.13;13.23;;;;;;;16.46;71.37;100542.38;5011933;28;20034;-96
2021/10/17 03:18:40;;;;;;;19.95;15.40;;;;;;;16.29;71.97;100521.84;5011742;28;20092;-96
2021/10/17 03:21:07;;;;;;;26.92;16.08;;;;;;;16.44;71.87;100523.94;5015736;28;20093;-96
2021/10/17 03:23:35;;;;;;;22.00;16.60;;;;;;;16.63;71.64;100532.91;5018802;28;20033;-96
2021/10/17 03:26:01;;;;;;;21.90;16.23;;;;;;;16.68;71.67;100527.16;5017645;28;20030;-96
2021/10/17 03:28:30;;;;;;;23.70;15.70;;;;;;;16.64;72.49;100522.13;5019372;28;20081;-96
2021/10/17 03:31:06;;;;;;;20.77;16.23;;;;;;;16.72;71.74;100526.72;5038941;28;20026;-96
2021/10/17 03:33:35;;;;;;;18.52;14.80;;;;;;;16.91;71.22;100531.22;5021220;28;20245;-96
2021/10/17 03:36:01;;;;;;;17.88;12.88;;;;;;;16.92;70.89;100516.13;5020291;28;20033;-96
2021/10/17 03:38:27;;;;;;;21.10;15.85;;;;;;;16.84;70.66;100516.84;5017972;28;20029;-96
2021/10/17 03:40:53;;;;;;;20.83;15.27;;;;;;;16.89;71.15;100532.34;5002577;28;20036;-96
2021/10/17 03:43:20;;;;;;;21.20;14.68;;;;;;;16.79;71.14;100519.88;5035952;28;20022;-96
2021/10/17 03:45:47;;;;;;;19.27;13.80;;;;;;;16.81;70.88;100514.44;5036392;28;20029;-96
2021/10/17 03:48:13;;;;;;;18.20;13.48;;;;;;;16.81;70.81;100514.44;5002349;28;20021;-96
2021/10/17 03:50:38;;;;;;;17.30;13.07;;;;;;;16.85;70.90;100511.41;5001252;28;20073;-96
2021/10/17 03:53:04;;;;;;;24.60;15.20;;;;;;;16.80;70.78;100505.63;5013205;28;20029;-96
2021/10/17 03:55:30;;;;;;;20.92;15.70;;;;;;;16.88;70.52;100512.91;5011369;28;20022;-96
2021/10/17 03:57:56;;;;;;;19.10;14.50;;;;;;;16.84;70.78;100503.56;5013223;28;20030;-96
2021/10/17 04:00:22;;;;;;;19.67;14.35;;;;;;;16.91;70.93;100531.22;5011227;28;20068;-96
2021/10/17 04:02:49;;;;;;;20.02;13.30;;;;;;;16.78;70.83;100504.13;4979808;28;20634;-96
2021/10/17 04:05:15;;;;;;;17.95;13.88;;;;;;;16.90;70.86;100526.03;4995305;28;20026;-96
2021/10/17 04:07:41;;;;;;;19.23;15.52;;;;;;;16.72;70.91;100510.81;5001822;28;20026;-96
2021/10/17 04:10:08;;;;;;;18.52;13.68;;;;;;;16.74;71.17;100510.69;5013093;28;20088;-96
2021/10/17 04:12:34;;;;;;;18.05;13.77;;;;;;;16.78;70.96;100512.91;5012258;28;20022;-96
2021/10/17 04:15:00;;;;;;;17.95;14.93;;;;;;;16.83;71.01;100520.47;5010105;28;20377;-96
2021/10/17 04:17:26;;;;;;;15.60;13.95;;;;;;;16.90;71.04;100526.88;5006727;28;20099;-96
2021/10/17 04:19:52;;;;;;;15.63;13.05;;;;;;;16.81;70.84;100517.09;5002430;28;20030;-96
2021/10/17 04:22:18;;;;;;;16.60;13.45;;;;;;;16.80;71.02;100523.38;5004674;28;20037;-96
2021/10/17 04:24:44;;;;;;;19.73;13.52;;;;;;;16.78;71.42;100514.72;5001766;28;20483;-96
2021/10/17 04:27:09;;;;;;;17.17;12.57;;;;;;;16.84;71.25;100524.78;5003755;28;20033;-96
2021/10/17 04:29:36;;;;;;;21.75;14.23;;;;;;;16.80;71.12;100520.72;5004106;28;20030;-96
2021/10/17 04:32:05;;;;;;;19.05;13.57;;;;;;;16.75;71.39;100515.84;5001186;28;20457;-96
2021/10/17 04:34:33;;;;;;;19.45;13.75;;;;;;;16.94;70.47;100514.16;5015689;28;20030;-96
2021/10/17 04:37:01;;;;;;;20.80;14.90;;;;;;;16.94;70.42;100509.72;5016853;28;20022;-96
2021/10/17 04:39:29;;;;;;;19.00;13.23;;;;;;;16.94;70.45;100512.38;5000646;28;20048;-96
2021/10/17 04:42:02;;;;;;;19.08;14.00;;;;;;;16.89;70.44;100506.66;5035788;28;20033;-96
2021/10/17 04:44:33;;;;;;;20.90;15.50;;;;;;;16.88;70.99;100506.78;5019139;28;20030;-96
2021/10/17 04:46:59;;;;;;;19.40;14.43;;;;;;;16.88;70.89;100512.09;4999212;28;20064;-96
2021/10/17 04:49:26;;;;;;;20.05;14.60;;;;;;;16.94;70.71;100516.81;4995587;28;20484;-96
2021/10/17 04:51:55;;;;;;;16.70;13.00;;;;;;;16.95;70.88;100521.97;4994999;28;20399;-96
2021/10/17 04:54:21;;;;;;;19.63;14.98;;;;;;;16.92;71.10;100521.44;5012292;28;20088;-96
2021/10/17 04:56:46;;;;;;;16.30;14.30;;;;;;;16.93;71.05;100518.63;4993990;28;20058;-96
2021/10/17 04:59:13;;;;;;;20.80;13.35;;;;;;;16.87;71.46;100523.69;4995982;28;20125;-96
2021/10/17 05:01:39;;;;;;;18.45;13.77;;;;;;;16.88;71.75;100517.38;4994972;28;20021;-96
2021/10/17 05:04:05;;;;;;;16.75;13.38;;;;;;;16.91;71.66;100523.25;4993751;28;20499;-96
2021/10/17 05:06:30;;;;;;;20.95;14.57;;;;;;;16.98;71.31;100527.03;4994661;28;20476;-96
2021/10/17 05:08:55;;;;;;;24.23;16.25;;;;;;;17.01;71.59;100526.72;4994920;28;20030;-96
2021/10/17 05:11:25;;;;;;;23.48;16.60;;;;;;;16.96;71.51;100518.38;4994232;28;20041;-96
2021/10/17 05:13:50;;;;;;;19.52;15.02;;;;;;;16.99;71.56;100520.72;4995336;28;20402;-96
2021/10/17 05:16:16;;;;;;;18.83;14.85;;;;;;;17.01;71.49;100520.59;5012793;28;20030;-96
2021/10/17 05:18:41;;;;;;;25.88;16.75;;;;;;;17.03;71.30;100519.44;4986741;28;20030;-96
2021/10/17 05:21:08;;;;;;;19.02;14.82;;;;;;;17.08;71.28;100526.13;4985856;28;20038;-96
2021/10/17 05:23:35;;;;;;;19.95;13.60;;;;;;;17.10;71.23;100529.47;4988427;28;20106;-96
2021/10/17 05:26:03;;;;;;;21.60;14.88;;;;;;;17.05;71.50;100533.41;5008537;28;20076;-96
2021/10/17 05:28:28;;;;;;;32.58;14.48;;;;;;;17.06;71.50;100528.94;4991300;28;20054;-96
2021/10/17 05:30:53;;;;;;;18.02;12.98;;;;;;;17.04;71.25;100528.25;4994355;28;20503;-94
2021/10/17 05:33:19;;;;;;;23.25;16.02;;;;;;;17.04;71.41;100523.78;4993817;28;20030;-95
2021/10/17 05:35:44;;;;;;;20.85;15.20;;;;;;;17.13;71.38;100521.25;4995067;28;20485;-95
2021/10/17 05:38:10;;;;;;;19.50;15.07;;;;;;;17.12;71.35;100524.88;4985958;28;20166;-96
2021/10/17 05:40:35;;;;;;;26.10;18.05;;;;;;;17.03;71.37;100529.22;4993220;28;20069;-96
2021/10/17 05:43:00;;;;;;;20.95;17.48;;;;;;;17.08;71.46;100529.66;4994148;28;20104;-96
2021/10/17 05:45:26;;;;;;;22.58;16.60;;;;;;;17.08;71.33;100526.13;4995295;28;20057;-96
2021/10/17 05:47:51;;;;;;;29.20;15.73;;;;;;;17.10;71.36;100516.22;5009763;28;20400;-95
2021/10/17 05:50:16;;;;;;;21.02;16.15;;;;;;;17.14;71.51;100518.47;4992399;28;20444;-95
2021/10/17 05:52:42;;;;;;;28.73;19.10;;;;;;;17.22;71.53;100518.56;4992351;28;20031;-95
2021/10/17 05:55:08;;;;;;;25.52;17.58;;;;;;;17.18;71.10;100518.97;4995604;28;20026;-96
2021/10/17 05:57:36;;;;;;;23.58;16.38;;;;;;;17.20;71.42;100519.66;4992487;28;20034;-96
2021/10/17 06:00:04;;;;;;;19.13;15.85;;;;;;;17.27;70.74;100520.78;4992724;28;20022;-94
2021/10/17 06:02:29;;;;;;;20.25;16.17;;;;;;;17.24;70.91;100526.41;5015107;28;20076;-95
2021/10/17 06:04:55;;;;;;;21.83;17.17;;;;;;;17.28;71.02;100519.81;5014773;28;20025;-94
2021/10/17 06:07:21;;;;;;;22.83;18.33;;;;;;;17.26;71.09;100516.47;4997592;28;20038;-95
2021/10/17 06:09:47;;;;;;;23.08;17.25;;;;;;;17.24;71.37;100521.91;4997478;28;20030;-94
2021/10/17 06:12:12;;;;;;;21.25;16.58;;;;;;;17.23;70.89;100516.75;5015794;28;20408;-94
2021/10/17 06:14:37;;;;;;;19.23;15.60;;;;;;;17.30;70.90;100525.81;5014604;28;20045;-94
2021/10/17 06:17:04;;;;;;;20.23;14.95;;;;;;;17.30;70.91;100517.84;5007728;28;20080;-95
2021/10/17 06:19:30;;;;;;;23.98;16.08;;;;;;;17.28;70.95;100521.59;5015025;28;20033;-94
2021/10/17 06:21:55;;;;;;;18.00;14.82;;;;;;;17.37;70.73;100521.56;5011458;28;20507;-93
2021/10/17 06:24:21;;;;;;;19.65;15.50;;;;;;;17.34;70.45;100521.06;5014546;28;20051;-94
2021/10/17 06:26:46;;;;;;;21.08;15.75;;;;;;;17.20;71.34;100515.22;4997217;28;20462;-95
2021/10/17 06:29:12;;;;;;;21.38;16.45;;;;;;;17.35;70.93;100510.28;5015377;28;20101;-94
2021/10/17 06:31:38;;;;;;;25.00;17.88;;;;;;;17.41;71.52;100522.97;5016040;28;20030;-95
2021/10/17 06:34:04;;;;;;;23.80;16.67;;;;;;;17.47;70.95;100515.41;4996625;28;20075;-96
2021/10/17 06:36:30;;;;;;;21.98;16.50;;;;;;;17.48;70.87;100519.75;5014539;28;20080;-94
2021/10/17 06:38:55;;;;;;;26.67;16.95;;;;;;;17.47;71.03;100520.72;5014105;28;20034;-94
2021/10/17 06:41:21;;;;;;;21.08;15.82;;;;;;;17.45;71.18;100519.03;4996544;28;20289;-95
2021/10/17 06:43:46;;;;;;;19.85;16.10;;;;;;;17.45;71.02;100515.53;5014722;28;20176;-94
2021/10/17 06:46:11;;;;;;;19.02;16.17;;;;;;;17.37;71.01;100520.75;4997060;28;20064;-94
2021/10/17 06:48:37;;;;;;;23.60;16.05;;;;;;;17.38;71.46;100523.25;5014504;28;20142;-94
2021/10/17 06:51:02;;;;;;;20.60;16.05;;;;;;;17.38;71.26;100520.59;4996748;28;20061;-94
2021/10/17 06:53:28;;;;;;;19.73;15.80;;;;;;;17.40;71.26;100534.56;4997100;28;20018;-95
2021/10/17 06:55:53;;;;;;;19.33;15.20;;;;;;;17.04;72.59;100521.13;5014841;28;20093;-95
2021/10/17 06:58:18;;;;;;;22.23;15.15;;;;;;;16.96;73.25;100517.50;5014557;28;20384;-94
2021/10/17 07:00:44;;;;;;;21.80;14.93;;;;;;;16.87;73.61;100508.59;5014166;28;20384;-94
2021/10/17 07:03:09;;;;;;;16.02;13.52;;;;;;;16.91;74.10;100520.59;4995192;28;20025;-94
2021/10/17 07:05:35;;;;;;;17.15;13.38;;;;;;;17.02;73.86;100517.78;5014283;28;20030;-95
2021/10/17 07:08:00;;;;;;;25.85;17.08;;;;;;;16.85;74.19;100521.16;4996754;28;20523;-96
2021/10/17 07:10:25;;;;;;;22.77;17.08;;;;;;;16.89;74.42;100530.50;4983865;28;20030;-95
2021/10/17 07:12:51;;;;;;;21.80;16.55;;;;;;;16.90;74.51;100540.13;5010817;28;20476;-94
2021/10/17 07:15:16;;;;;;;20.40;16.48;;;;;;;16.90;74.78;100544.59;5017438;28;20033;-95
2021/10/17 07:17:42;;;;;;;28.70;18.95;;;;;;;16.92;74.76;100540.00;5015555;28;20113;-94
2021/10/17 07:20:08;;;;;;;21.48;16.10;;;;;;;16.95;75.03;100542.38;4995516;28;20049;-95
2021/10/17 07:22:33;;;;;;;24.92;17.17;;;;;;;16.95;74.64;100529.94;4996307;28;20481;-94
2021/10/17 07:24:58;;;;;;;31.25;19.98;;;;;;;16.95;74.91;100516.69;4996057;28;20049;-94
2021/10/17 07:27:24;;;;;;;23.20;16.45;;;;;;;17.01;74.79;100528.53;4996553;28;20034;-94
2021/10/17 07:29:49;;;;;;;21.55;16.55;;;;;;;17.05;74.66;100533.41;5013575;28;20034;-94
2021/10/17 07:32:15;;;;;;;28.90;19.00;;;;;;;17.07;74.71;100532.44;5010922;28;20044;-94
2021/10/17 07:34:40;;;;;;;22.10;16.08;;;;;;;17.14;74.60;100537.03;4995273;28;20392;-93
2021/10/17 07:37:06;;;;;;;31.80;18.40;;;;;;;17.13;74.63;100542.47;5013608;28;20033;-95
2021/10/17 07:39:31;;;;;;;23.60;16.60;;;;;;;17.25;74.57;100543.97;5015175;28;20049;-95
2021/10/17 07:41:58;;;;;;;21.73;16.55;;;;;;;17.28;74.34;100538.38;5013535;28;20033;-94
2021/10/17 07:44:24;;;;;;;21.20;17.70;;;;;;;17.23;74.34;100533.50;4996051;28;20032;-95
2021/10/17 07:46:49;;;;;;;24.42;17.63;;;;;;;17.27;74.17;100541.19;4995943;28;20119;-95
2021/10/17 07:49:15;;;;;;;24.58;18.45;;;;;;;17.27;74.26;100535.88;5013239;28;20057;-95
2021/10/17 07:51:40;;;;;;;21.30;17.00;;;;;;;17.34;73.92;100532.50;4995724;28;20471;-94
2021/10/17 07:54:08;;;;;;;24.92;18.83;;;;;;;17.29;73.96;100537.38;4995935;28;20113;-96
2021/10/17 07:56:33;;;;;;;26.88;17.63;;;;;;;17.39;73.98;100542.66;4995692;28;20045;-95
2021/10/17 07:58:59;;;;;;;24.65;17.67;;;;;;;17.36;73.83;100546.47;4995699;28;20037;-95
2021/10/17 08:01:25;;;;;;;21.80;17.30;;;;;;;17.43;73.89;100552.00;4995498;28;20096;-94
2021/10/17 08:03:50;;;;;;;24.30;17.95;;;;;;;17.38;73.72;100555.13;4995603;28;20056;-93
2021/10/17 08:06:16;;;;;;;24.27;15.85;;;;;;;17.41;73.88;100549.50;4995151;28;20116;-94
2021/10/17 08:08:41;;;;;;;26.58;17.67;;;;;;;17.48;73.23;100546.28;5012552;28;20086;-95
2021/10/17 08:11:07;;;;;;;23.63;16.25;;;;;;;17.49;73.45;100547.94;5012883;28;20029;-95
2021/10/17 08:13:32;;;;;;;24.15;17.20;;;;;;;17.39;73.57;100540.84;4995265;28;20428;-94
2021/10/17 08:15:58;;;;;;;26.45;17.27;;;;;;;17.49;73.65;100546.13;4994998;28;20392;-93
2021/10/17 08:18:26;;;;;;;21.40;16.98;;;;;;;17.48;73.64;100554.25;5012642;28;20416;-94
2021/10/17 08:20:51;;;;;;;20.13;16.08;;;;;;;17.56;73.62;100552.53;5012977;28;20040;-94
2021/10/17 08:23:17;;;;;;;26.20;16.63;;;;;;;17.56;73.72;100547.22;5012914;28;20108;-95
2021/10/17 08:25:42;;;;;;;20.05;14.18;;;;;;;17.68;73.63;100552.34;4995351;28;20485;-95
2021/10/17 08:28:11;;;;;;;28.20;17.05;;;;;;;17.70;72.70;100553.88;4994688;28;20040;-94
2021/10/17 08:30:36;;;;;;;21.92;15.23;;;;;;;17.79;73.12;100554.78;5012378;28;20113;-94
2021/10/17 08:33:01;;;;;;;17.20;14.00;;;;;;;17.82;73.01;100562.47;5012857;28;20105;-95
2021/10/17 08:35:27;;;;;;;21.95;15.02;;;;;;;17.80;73.06;100554.66;4995031;28;20173;-94
2021/10/17 08:37:52;;;;;;;21.85;14.57;;;;;;;17.83;72.67;100550.84;4994317;28;20030;-96
2021/10/17 08:40:17;;;;;;;20.55;15.27;;;;;;;17.95;72.52;100556.84;5012536;28;20026;-94
2021/10/17 08:42:43;;;;;;;22.27;13.73;;;;;;;18.08;71.99;100561.81;4994713;28;20030;-95
2021/10/17 08:45:09;;;;;;;18.17;13.73;;;;;;;18.16;71.91;100560.06;5012605;28;20026;-96
2021/10/17 08:47:35;;;;;;;18.55;13.82;;;;;;;18.19;71.40;100565.09;4999211;28;20030;-96
2021/10/17 08:50:01;;;;;;;17.42;13.50;;;;;;;18.18;71.32;100565.22;4998254;28;20096;-96
2021/10/17 08:52:26;;;;;;;19.15;14.05;;;;;;;18.18;71.41;100566.06;4999919;28;20108;-96
2021/10/17 08:54:52;;;;;;;19.77;14.93;;;;;;;18.27;71.27;100572.31;4996851;28;20476;-96
2021/10/17 08:57:17;;;;;;;23.13;13.57;;;;;;;18.29;70.84;100564.19;4996989;28;20088;-96
2021/10/17 08:59:50;;;;;;;22.48;15.18;;;;;;;18.40;70.70;100566.63;4997029;28;20377;-95
2021/10/17 09:02:21;;;;;;;18.23;13.52;;;;;;;18.49;70.02;100562.22;5013850;28;20029;-96
2021/10/17 09:05:09;;;;;;;19.90;12.68;;;;;;;18.74;69.83;100584.53;5015020;28;20030;-96
2021/10/17 09:07:35;;;;;;;18.33;12.88;;;;;;;18.66;69.43;100566.72;4994992;28;20038;-96
2021/10/17 09:10:17;;;;;;;19.60;13.18;;;;;;;18.59;69.87;100555.84;4998920;28;20037;-95
2021/10/17 09:12:43;;;;;;;;;;;;;;;18.72;69.71;100575.88;4983220;28;20030;-94
2021/10/17 09:15:29;;;;;;;14.70;11.60;;;;;;;18.79;69.56;100572.50;4996994;28;20015;-91
2021/10/17 09:18:09;;;;;;;19.05;11.07;;;;;;;18.81;69.41;100572.34;4995573;28;20038;-95
2021/10/17 09:20:47;;;;;;;15.63;11.05;;;;;;;18.94;69.67;100570.13;5005226;28;20025;-96
2021/10/17 09:23:29;;;;;;;14.75;11.15;;;;;;;19.11;68.34;100570.25;4995422;28;20018;-96
2021/10/17 09:25:58;;;;;;;17.40;11.73;;;;;;;19.23;67.66;100574.31;4995296;28;20035;-96
2021/10/17 09:28:25;;;;;;;18.08;10.60;;;;;;;19.34;67.13;100565.25;4987243;28;20053;-96
2021/10/17 09:31:12;;;;;;;16.52;10.52;;;;;;;19.38;66.61;100570.06;4994540;28;20487;-95
2021/10/17 09:33:55;;;;;;;15.05;10.18;;;;;;;19.38;66.73;100567.41;4975461;28;20035;-96
2021/10/17 09:36:22;;;;;;;20.67;11.27;;;;;;;19.42;66.56;100568.78;4982437;28;20052;-95
2021/10/17 09:38:51;;;;;;;19.50;11.15;;;;;;;19.29;67.08;100568.34;4994591;28;20037;-95
2021/10/17 09:41:22;;;;;;;16.38;11.05;;;;;;;19.41;66.10;100572.44;4994678;28;20021;-95
2021/10/17 09:43:53;;;;;;;17.13;10.65;;;;;;;19.52;66.29;100568.66;4994945;28;20045;-95
2021/10/17 09:46:18;;;;;;;15.05;11.57;;;;;;;19.40;66.43;100570.75;4994377;28;20034;-96
2021/10/17 09:48:44;;;;;;;16.70;11.50;;;;;;;19.57;65.98;100570.88;4994702;28;20033;-96
2021/10/17 09:51:15;;;;;;;16.38;10.85;;;;;;;19.55;66.34;100575.47;4994852;28;20026;-95
2021/10/17 09:53:44;;;;;;;17.35;11.40;;;;;;;19.56;65.83;100574.50;4995491;28;20033;-96
2021/10/17 09:56:28;;;;;;;14.80;11.13;;;;;;;19.74;65.91;100574.44;4994512;28;20042;-96
2021/10/17 09:58:53;;;;;;;15.25;11.00;;;;;;;19.80;65.96;100569.31;4990010;28;20052;-93
2021/10/17 10:01:26;;;;;;;19.00;11.00;;;;;;;19.81;65.58;100565.66;4994773;28;20480;-95
2021/10/17 10:03:54;;;;;;;18.42;11.75;;;;;;;19.88;66.21;100567.69;5012273;28;20514;-95
2021/10/17 10:06:21;;;;;;;12.88;11.30;;;;;;;20.10;65.26;100571.59;4994301;28;20037;-95
2021/10/17 10:08:47;;;;;;;15.60;10.55;;;;;;;20.23;64.80;100565.78;4994368;28;20049;-95
2021/10/17 10:11:14;;;;;;;15.40;11.18;;;;;;;20.50;64.12;100565.50;4994345;28;20109;-96
2021/10/17 10:13:40;;;;;;;14.73;11.02;;;;;;;20.44;64.24;100558.16;4994103;28;20541;-95
2021/10/17 10:16:07;;;;;;;13.65;9.52;;;;;;;20.55;63.80;100554.34;4997034;28;20029;-95
2021/10/17 10:18:35;;;;;;;13.70;10.57;;;;;;;20.56;63.72;100556.84;4998005;28;20044;-95
2021/10/17 10:21:00;;;;;;;17.95;11.70;;;;;;;20.38;64.47;100550.84;4998765;28;20018;-94
2021/10/17 10:23:26;;;;;;;12.73;9.55;;;;;;;20.60;63.81;100558.22;4996804;28;20516;-95
2021/10/17 10:25:54;;;;;;;14.65;10.52;;;;;;;20.51;63.71;100569.81;4994525;28;20013;-96
2021/10/17 10:28:21;;;;;;;17.42;9.85;;;;;;;20.62;64.02;100559.84;4996785;28;20033;-96
2021/10/17 10:30:47;;;;;;;16.90;9.38;;;;;;;20.87;62.71;100566.88;4994165;28;20121;-96
2021/10/17 10:33:14;;;;;;;12.07;8.77;;;;;;;21.05;62.11;100560.50;5011781;28;20030;-95
2021/10/17 10:36:13;;;;;;;16.35;9.48;;;;;;;21.04;61.76;100577.56;4993510;28;20336;-94
2021/10/17 10:38:51;;;;;;;21.00;10.25;;;;;;;21.09;61.24;100588.53;4982675;28;20123;-95
2021/10/17 10:41:23;;;;;;;11.95;8.68;;;;;;;21.17;61.28;100581.38;5012987;28;20443;-95
2021/10/17 10:43:49;;;;;;;9.98;8.20;;;;;;;21.10;61.77;100568.88;4997944;28;20037;-94
2021/10/17 10:46:28;;;;;;;12.40;9.07;;;;;;;21.10;61.34;100574.22;4997080;28;20546;-95
2021/10/17 10:48:54;;;;;;;13.25;8.68;;;;;;;20.96;61.56;100573.06;4978474;28;20526;-96
2021/10/17 10:51:46;;;;;;;11.23;7.88;;;;;;;20.58;62.93;100572.69;4994222;28;20018;-95
2021/10/17 10:54:23;;;;;;;;;;;;;;;21.22;60.70;100577.34;4971864;28;20038;-95
2021/10/17 10:56:49;;;;;;;11.23;7.80;;;;;;;21.02;60.90;100582.22;4996981;28;19917;-94
2021/10/17 10:59:17;;;;;;;16.25;8.43;;;;;;;21.06;60.65;100579.03;4997101;28;20030;-95
2021/10/17 11:01:56;;;;;;;17.45;8.20;;;;;;;21.28;60.71;100588.19;5013991;28;20068;-90
2021/10/17 11:04:44;;;;;;;12.63;7.35;;;;;;;21.06;61.61;100583.56;5015084;28;20057;-94
2021/10/17 11:07:27;;;;;;;11.98;7.22;;;;;;;20.93;62.00;100582.25;4977707;28;20033;-93
2021/10/17 11:09:56;;;;;;;13.52;7.60;;;;;;;21.17;60.64;100591.22;5011028;28;20048;-93